createdAt,value
2019-05-23T00:00:49.793Z,9.24
2019-05-23T00:03:59.441Z,9.22
2019-05-23T00:07:07.252Z,9.20
2019-05-23T00:10:13.342Z,9.18
2019-05-23T00:13:35.734Z,9.12
2019-05-23T00:16:40.502Z,9.07
2019-05-23T00:19:44.520Z,9.08
2019-05-23T00:22:48.956Z,9.08
2019-05-23T00:25:53.857Z,9.11
2019-05-23T00:29:09.636Z,9.12
2019-05-23T00:32:25.616Z,9.15
2019-05-23T00:35:31.360Z,9.23
2019-05-23T00:38:35.603Z,9.21
2019-05-23T00:41:40.509Z,9.27
2019-05-23T00:44:44.657Z,9.28
2019-05-23T00:47:49.174Z,9.18
2019-05-23T00:50:54.310Z,9.36
2019-05-23T00:53:58.132Z,9.26
2019-05-23T00:57:02.335Z,9.28
2019-05-23T01:00:06.991Z,9.23
2019-05-23T01:03:11.338Z,9.14
2019-05-23T01:06:15.865Z,9.17
2019-05-23T01:09:20.537Z,9.09
2019-05-23T01:12:25.146Z,9.15
2019-05-23T01:15:29.564Z,9.15
2019-05-23T01:18:33.576Z,9.06
2019-05-23T01:21:48.890Z,9.01
2019-05-23T01:24:55.602Z,8.99
2019-05-23T01:27:59.622Z,8.99
2019-05-23T01:31:06.759Z,8.89
2019-05-23T01:34:14.052Z,8.87
2019-05-23T01:37:18.835Z,8.93
2019-05-23T01:40:23.414Z,8.86
2019-05-23T01:43:27.729Z,8.75
2019-05-23T01:46:31.556Z,8.68
2019-05-23T01:49:37.165Z,8.64
2019-05-23T01:52:42.276Z,8.64
2019-05-23T01:55:46.812Z,8.60
2019-05-23T01:58:51.193Z,8.59
2019-05-23T02:01:55.571Z,8.55
2019-05-23T02:04:59.933Z,8.52
2019-05-23T02:08:05.075Z,8.45
2019-05-23T02:11:10.527Z,8.44
2019-05-23T02:14:14.594Z,8.37
2019-05-23T02:17:19.656Z,8.32
2019-05-23T02:20:24.734Z,8.30
2019-05-23T02:23:29.079Z,8.28
2019-05-23T02:26:33.719Z,8.32
2019-05-23T02:29:37.653Z,8.32
2019-05-23T02:32:41.912Z,8.27
2019-05-23T02:35:45.723Z,8.27
2019-05-23T02:39:08.147Z,8.22
2019-05-23T02:42:21.870Z,8.15
2019-05-23T02:45:33.576Z,8.08
2019-05-23T02:48:43.248Z,8.04
2019-05-23T02:51:47.919Z,8.02
2019-05-23T02:54:54.141Z,8.00
2019-05-23T02:58:05.227Z,8.03
2019-05-23T03:01:40.291Z,7.98
2019-05-23T03:04:44.966Z,7.95
2019-05-23T03:07:50.680Z,7.93
2019-05-23T03:11:05.153Z,7.91
2019-05-23T03:14:11.525Z,7.90
2019-05-23T03:17:18.695Z,7.85
2019-05-23T03:20:24.062Z,7.87
2019-05-23T03:23:28.636Z,7.85
2019-05-23T03:27:00.140Z,7.86
2019-05-23T03:30:06.036Z,7.90
2019-05-23T03:33:10.120Z,7.92
2019-05-23T03:36:14.010Z,7.92
2019-05-23T03:39:18.546Z,7.89
2019-05-23T03:42:23.214Z,7.92
2019-05-23T03:45:30.921Z,7.87
2019-05-23T03:48:36.139Z,7.86
2019-05-23T03:51:42.726Z,7.87
2019-05-23T03:54:49.209Z,7.85
2019-05-23T03:57:54.611Z,7.92
2019-05-23T04:01:00.246Z,7.82
2019-05-23T04:04:06.287Z,7.82
2019-05-23T04:07:10.455Z,7.79
2019-05-23T04:10:14.488Z,7.84
2019-05-23T04:13:18.707Z,7.89
2019-05-23T04:16:22.727Z,7.93
2019-05-23T04:19:26.963Z,7.99
2019-05-23T04:22:31.433Z,8.04
2019-05-23T04:25:35.743Z,8.13
2019-05-23T04:28:39.663Z,8.20
2019-05-23T04:31:43.585Z,8.27
2019-05-23T04:34:47.571Z,8.35
2019-05-23T04:37:51.560Z,8.43
2019-05-23T04:40:56.215Z,8.49
2019-05-23T04:44:00.175Z,8.56
2019-05-23T04:47:05.461Z,8.62
2019-05-23T04:50:12.141Z,8.66
2019-05-23T04:53:16.035Z,8.77
2019-05-23T04:56:19.929Z,8.86
2019-05-23T04:59:24.431Z,8.99
2019-05-23T05:02:30.222Z,9.01
2019-05-23T05:05:34.347Z,9.10
2019-05-23T05:08:38.247Z,9.11
2019-05-23T05:11:42.726Z,9.22
2019-05-23T05:14:47.085Z,9.36
2019-05-23T05:17:51.585Z,9.45
2019-05-23T05:20:55.393Z,9.54
2019-05-23T05:23:59.292Z,9.72
2019-05-23T05:27:04.471Z,9.77
2019-05-23T05:30:09.047Z,9.91
2019-05-23T05:33:12.882Z,10.14
2019-05-23T05:36:16.871Z,10.20
2019-05-23T05:39:22.338Z,10.36
2019-05-23T05:42:26.999Z,10.49
2019-05-23T05:45:31.652Z,10.62
2019-05-23T05:48:35.850Z,10.68
2019-05-23T05:51:40.095Z,10.91
2019-05-23T05:54:44.071Z,10.93
2019-05-23T05:57:47.893Z,11.02
2019-05-23T06:00:58.453Z,11.29
2019-05-23T06:04:03.207Z,11.35
2019-05-23T06:07:29.554Z,11.65
2019-05-23T06:10:33.655Z,11.73
2019-05-23T06:13:37.533Z,11.77
2019-05-23T06:16:41.846Z,11.72
2019-05-23T06:19:46.392Z,11.93
2019-05-23T06:22:52.210Z,12.05
2019-05-23T06:25:56.131Z,12.51
2019-05-23T06:28:59.946Z,12.72
2019-05-23T06:32:06.855Z,12.66
2019-05-23T06:35:10.987Z,12.70
2019-05-23T06:38:14.962Z,12.88
2019-05-23T06:41:19.377Z,13.05
2019-05-23T06:44:23.839Z,13.23
2019-05-23T06:47:27.786Z,13.39
2019-05-23T06:50:31.861Z,13.54
2019-05-23T06:53:35.659Z,13.75
2019-05-23T06:56:39.569Z,13.77
2019-05-23T06:59:43.408Z,13.97
2019-05-23T07:02:49.193Z,14.13
2019-05-23T07:05:53.357Z,14.03
2019-05-23T07:08:57.713Z,14.21
2019-05-23T07:12:01.709Z,14.36
2019-05-23T07:15:06.241Z,14.64
2019-05-23T07:18:10.268Z,14.54
2019-05-23T07:21:15.000Z,14.83
2019-05-23T07:24:19.425Z,15.01
2019-05-23T07:27:24.368Z,15.12
2019-05-23T07:30:28.353Z,15.13
2019-05-23T07:33:32.322Z,15.27
2019-05-23T07:36:36.827Z,15.31
2019-05-23T07:39:40.824Z,15.42
2019-05-23T07:42:44.987Z,15.47
2019-05-23T07:45:55.786Z,15.51
2019-05-23T07:48:59.577Z,15.60
2019-05-23T07:52:03.829Z,15.71
2019-05-23T07:55:17.146Z,15.72
2019-05-23T07:58:22.630Z,15.67
2019-05-23T08:01:28.408Z,15.79
2019-05-23T08:04:32.556Z,15.85
2019-05-23T08:07:38.397Z,15.96
2019-05-23T08:10:42.381Z,15.98
2019-05-23T08:13:46.206Z,16.23
2019-05-23T08:16:50.877Z,16.24
2019-05-23T08:19:55.139Z,16.34
2019-05-23T08:22:59.141Z,16.37
2019-05-23T08:26:03.199Z,16.50
2019-05-23T08:29:25.910Z,16.61
2019-05-23T08:32:12.656Z,16.68
2019-05-23T08:35:18.211Z,16.72
2019-05-23T08:38:23.222Z,16.82
2019-05-23T08:41:27.730Z,16.92
2019-05-23T08:44:31.991Z,17.15
2019-05-23T08:47:36.141Z,17.34
2019-05-23T08:50:39.973Z,17.40
2019-05-23T08:53:43.868Z,17.62
2019-05-23T08:56:47.744Z,17.72
2019-05-23T08:59:51.602Z,17.76
2019-05-23T09:02:58.802Z,17.80
2019-05-23T09:06:03.353Z,18.09
2019-05-23T09:09:28.379Z,17.87
2019-05-23T09:12:15.607Z,17.74
2019-05-23T09:15:19.810Z,17.86
2019-05-23T09:18:24.328Z,18.14
2019-05-23T09:21:28.380Z,17.87
2019-05-23T09:24:32.266Z,17.69
2019-05-23T09:27:36.469Z,17.84
2019-05-23T09:30:40.432Z,18.00
2019-05-23T09:33:44.346Z,18.20
2019-05-23T09:36:48.486Z,18.29
2019-05-23T09:39:52.401Z,18.28
2019-05-23T09:42:56.330Z,18.37
2019-05-23T09:46:00.191Z,18.40
2019-05-23T09:49:04.164Z,18.63
2019-05-23T09:52:09.820Z,18.39
2019-05-23T09:55:14.142Z,18.31
2019-05-23T09:58:18.157Z,18.53
2019-05-23T10:01:22.552Z,18.56
2019-05-23T10:04:26.450Z,18.73
2019-05-23T10:07:30.550Z,18.53
2019-05-23T10:10:34.570Z,18.45
2019-05-23T10:13:39.678Z,18.74
2019-05-23T10:16:43.659Z,18.72
2019-05-23T10:19:47.634Z,18.70
2019-05-23T10:22:51.586Z,18.70
2019-05-23T10:25:55.720Z,19.02
2019-05-23T10:28:59.770Z,18.76
2019-05-23T10:32:05.514Z,18.87
2019-05-23T10:35:10.365Z,19.01
2019-05-23T10:38:14.374Z,19.05
2019-05-23T10:41:18.394Z,19.13
2019-05-23T10:44:22.282Z,19.14
2019-05-23T10:47:26.347Z,19.00
2019-05-23T10:50:43.627Z,18.90
2019-05-23T10:53:36.221Z,18.81
2019-05-23T10:56:40.219Z,18.99
2019-05-23T10:59:44.053Z,19.20
2019-05-23T11:02:48.217Z,19.39
2019-05-23T11:05:52.234Z,19.40
2019-05-23T11:08:56.328Z,19.36
2019-05-23T11:12:00.417Z,19.56
2019-05-23T11:15:04.651Z,19.74
2019-05-23T11:18:10.208Z,19.80
2019-05-23T11:21:14.101Z,19.61
2019-05-23T11:24:18.275Z,19.34
2019-05-23T11:27:22.812Z,19.66
2019-05-23T11:30:42.003Z,19.63
2019-05-23T11:33:45.908Z,19.52
2019-05-23T11:36:49.840Z,19.43
2019-05-23T11:39:54.041Z,19.31
2019-05-23T11:42:57.966Z,19.24
2019-05-23T11:46:21.309Z,19.28
2019-05-23T11:49:25.379Z,19.33
2019-05-23T11:52:30.234Z,19.42
2019-05-23T11:55:34.361Z,19.55
2019-05-23T11:58:38.163Z,19.39
2019-05-23T12:01:50.905Z,19.60
2019-05-23T12:04:56.114Z,19.69
2019-05-23T12:08:00.008Z,19.42
2019-05-23T12:11:04.089Z,19.51
2019-05-23T12:14:08.043Z,19.72
2019-05-23T12:17:12.736Z,19.73
2019-05-23T12:20:17.002Z,19.61
2019-05-23T12:23:20.835Z,19.81
2019-05-23T12:26:24.790Z,19.86
2019-05-23T12:29:28.771Z,19.59
2019-05-23T12:32:32.772Z,19.64
2019-05-23T12:35:36.584Z,19.68
2019-05-23T12:38:40.492Z,19.50
2019-05-23T12:41:44.588Z,19.54
2019-05-23T12:44:48.546Z,19.68
2019-05-23T12:48:09.027Z,19.64
2019-05-23T12:51:13.024Z,19.67
2019-05-23T12:54:17.012Z,19.77
2019-05-23T12:57:20.994Z,19.65
2019-05-23T13:00:42.664Z,19.87
2019-05-23T13:03:46.983Z,20.14
2019-05-23T13:06:50.874Z,20.08
2019-05-23T13:09:54.763Z,19.78
2019-05-23T13:12:58.748Z,19.51
2019-05-23T13:16:02.635Z,19.59
2019-05-23T13:19:06.561Z,19.64
2019-05-23T13:22:11.116Z,19.55
2019-05-23T13:25:15.388Z,19.88
2019-05-23T13:28:19.644Z,19.85
2019-05-23T13:31:23.640Z,20.21
2019-05-23T13:34:27.449Z,20.23
2019-05-23T13:37:31.468Z,19.96
2019-05-23T13:40:35.412Z,19.94
2019-05-23T13:43:39.625Z,19.84
2019-05-23T13:46:44.193Z,19.75
2019-05-23T13:49:48.183Z,19.79
2019-05-23T13:52:52.150Z,19.76
2019-05-23T13:55:56.336Z,19.93
2019-05-23T13:59:00.432Z,20.36
2019-05-23T14:02:06.123Z,20.25
2019-05-23T14:05:10.261Z,20.29
2019-05-23T14:08:18.488Z,20.48
2019-05-23T14:11:20.449Z,20.54
2019-05-23T14:14:25.077Z,20.09
2019-05-23T14:17:36.233Z,19.95
2019-05-23T14:20:40.203Z,19.80
2019-05-23T14:23:44.105Z,19.77
2019-05-23T14:26:54.898Z,19.81
2019-05-23T14:30:08.181Z,19.77
2019-05-23T14:33:06.381Z,19.56
2019-05-23T14:36:38.362Z,19.69
2019-05-23T14:39:45.966Z,19.97
2019-05-23T14:43:15.420Z,20.14
2019-05-23T14:46:20.044Z,20.32
2019-05-23T14:49:30.193Z,20.53
2019-05-23T14:52:38.113Z,20.77
2019-05-23T14:55:42.078Z,20.74
2019-05-23T14:58:46.088Z,20.64
2019-05-23T15:01:50.545Z,20.49
2019-05-23T15:04:54.363Z,20.14
2019-05-23T15:07:58.255Z,20.31
2019-05-23T15:11:02.325Z,20.28
2019-05-23T15:14:06.341Z,20.27
2019-05-23T15:17:10.231Z,20.24
2019-05-23T15:20:14.789Z,20.40
2019-05-23T15:23:18.724Z,20.61
2019-05-23T15:26:23.976Z,20.73
2019-05-23T15:29:29.402Z,20.93
2019-05-23T15:32:33.662Z,20.36
2019-05-23T15:35:37.559Z,20.46
2019-05-23T15:38:41.836Z,20.55
2019-05-23T15:41:45.850Z,20.81
2019-05-23T15:44:50.057Z,20.65
2019-05-23T15:47:55.090Z,20.70
2019-05-23T15:50:59.183Z,20.54
2019-05-23T15:54:14.892Z,20.73
2019-05-23T15:57:22.935Z,20.60
2019-05-23T16:01:01.434Z,20.60
2019-05-23T16:04:11.584Z,20.79
2019-05-23T16:07:16.027Z,20.44
2019-05-23T16:10:22.778Z,20.28
2019-05-23T16:13:26.763Z,19.92
2019-05-23T16:16:39.118Z,20.08
2019-05-23T16:19:43.789Z,19.71
2019-05-23T16:22:47.748Z,19.77
2019-05-23T16:25:51.614Z,19.51
2019-05-23T16:28:55.624Z,19.46
2019-05-23T16:32:02.788Z,19.39
2019-05-23T16:35:06.870Z,19.36
2019-05-23T16:38:10.971Z,19.34
2019-05-23T16:41:14.974Z,19.22
2019-05-23T16:44:18.922Z,19.26
2019-05-23T16:47:22.905Z,19.31
2019-05-23T16:50:26.687Z,19.26
2019-05-23T16:53:35.510Z,19.09
2019-05-23T16:56:54.149Z,19.03
2019-05-23T17:00:15.987Z,18.92
2019-05-23T17:03:38.826Z,18.58
2019-05-23T17:06:50.137Z,18.53
2019-05-23T17:10:08.659Z,18.55
2019-05-23T17:13:17.953Z,18.39
2019-05-23T17:16:40.848Z,18.38
2019-05-23T17:20:18.509Z,18.41
2019-05-23T17:23:27.687Z,18.29
2019-05-23T17:26:53.366Z,18.51
2019-05-23T17:30:02.216Z,18.45
2019-05-23T17:33:07.681Z,18.33
2019-05-23T17:36:11.554Z,18.43
2019-05-23T17:39:16.757Z,18.39
2019-05-23T17:42:20.561Z,18.35
2019-05-23T17:45:24.650Z,18.28
2019-05-23T17:48:28.571Z,18.20
2019-05-23T17:51:32.475Z,18.20
2019-05-23T17:54:36.353Z,18.15
2019-05-23T17:57:40.347Z,17.89
2019-05-23T18:00:45.655Z,17.95
2019-05-23T18:03:49.559Z,17.99
2019-05-23T18:06:53.746Z,17.78
2019-05-23T18:09:57.654Z,17.71
2019-05-23T18:13:01.713Z,17.66
2019-05-23T18:16:06.660Z,17.68
2019-05-23T18:19:10.815Z,17.57
2019-05-23T18:22:14.966Z,17.47
2019-05-23T18:25:19.340Z,17.37
2019-05-23T18:28:24.053Z,17.07
2019-05-23T18:31:29.609Z,17.23
2019-05-23T18:34:33.601Z,17.21
2019-05-23T18:37:37.431Z,17.06
2019-05-23T18:40:41.398Z,17.04
2019-05-23T18:43:46.655Z,16.96
2019-05-23T18:46:52.823Z,16.89
2019-05-23T18:49:56.805Z,16.60
2019-05-23T18:53:00.800Z,16.46
2019-05-23T18:56:05.023Z,16.44
2019-05-23T18:59:09.972Z,16.34
2019-05-23T19:02:13.852Z,16.26
2019-05-23T19:05:18.179Z,16.19
2019-05-23T19:08:22.716Z,16.26
2019-05-23T19:11:26.808Z,16.14
2019-05-23T19:14:30.746Z,16.11
2019-05-23T19:17:34.650Z,15.92
2019-05-23T19:20:38.987Z,15.74
2019-05-23T19:23:43.136Z,15.82
2019-05-23T19:26:48.411Z,15.63
2019-05-23T19:29:52.403Z,15.33
2019-05-23T19:32:56.939Z,15.34
2019-05-23T19:36:00.864Z,15.29
2019-05-23T19:39:06.711Z,15.03
2019-05-23T19:42:11.076Z,14.87
2019-05-23T19:45:15.041Z,14.88
2019-05-23T19:48:20.099Z,14.74
2019-05-23T19:51:23.908Z,14.74
2019-05-23T19:54:27.911Z,14.56
2019-05-23T19:57:32.143Z,14.58
2019-05-23T20:00:36.778Z,14.41
2019-05-23T20:03:41.049Z,14.40
2019-05-23T20:06:45.832Z,14.43
2019-05-23T20:09:50.213Z,14.35
2019-05-23T20:12:54.126Z,14.21
2019-05-23T20:15:57.934Z,14.09
2019-05-23T20:19:01.829Z,14.03
2019-05-23T20:22:05.838Z,14.01
2019-05-23T20:25:10.899Z,13.90
2019-05-23T20:28:14.803Z,13.86
2019-05-23T20:31:18.889Z,13.82
2019-05-23T20:34:22.953Z,13.79
2019-05-23T20:37:29.984Z,13.78
2019-05-23T20:40:33.928Z,13.75
2019-05-23T20:43:37.998Z,13.68
2019-05-23T20:46:42.289Z,13.75
2019-05-23T20:49:46.200Z,13.68
2019-05-23T20:52:50.020Z,13.72
2019-05-23T20:55:53.868Z,13.59
2019-05-23T20:58:57.757Z,13.57
2019-05-23T21:02:01.913Z,13.52
2019-05-23T21:05:05.917Z,13.51
2019-05-23T21:08:09.810Z,13.53
2019-05-23T21:11:13.695Z,13.53
2019-05-23T21:14:17.652Z,13.53
2019-05-23T21:17:21.727Z,13.58
2019-05-23T21:20:25.620Z,13.47
2019-05-23T21:23:29.507Z,13.42
2019-05-23T21:26:33.419Z,13.28
2019-05-23T21:29:37.319Z,13.23
2019-05-23T21:32:41.199Z,13.17
2019-05-23T21:35:45.098Z,13.11
2019-05-23T21:38:49.147Z,13.07
2019-05-23T21:41:53.004Z,13.03
2019-05-23T21:44:56.911Z,13.02
2019-05-23T21:48:00.886Z,13.03
2019-05-23T21:51:05.207Z,12.98
2019-05-23T21:54:09.241Z,12.92
2019-05-23T21:57:16.213Z,12.81
2019-05-23T22:00:32.181Z,12.76
2019-05-23T22:03:38.227Z,12.73
2019-05-23T22:06:44.775Z,12.65
2019-05-23T22:09:50.368Z,12.59
2019-05-23T22:13:03.920Z,12.59
2019-05-23T22:16:00.810Z,12.58
2019-05-23T22:19:09.858Z,12.52
2019-05-23T22:22:16.913Z,12.51
2019-05-23T22:25:32.620Z,12.40
2019-05-23T22:28:37.228Z,12.40
2019-05-23T22:31:44.193Z,12.25
2019-05-23T22:35:10.238Z,12.17
2019-05-23T22:38:14.994Z,12.15
2019-05-23T22:41:19.615Z,12.14
2019-05-23T22:44:23.872Z,12.17
2019-05-23T22:47:29.417Z,12.15
2019-05-23T22:50:33.260Z,12.10
2019-05-23T22:53:37.195Z,11.96
2019-05-23T22:56:41.589Z,11.89
2019-05-23T22:59:48.036Z,11.87
2019-05-23T23:02:52.243Z,11.79
2019-05-23T23:05:56.119Z,11.75
2019-05-23T23:09:00.082Z,11.77
2019-05-23T23:12:03.973Z,11.97
2019-05-23T23:15:08.144Z,11.88
2019-05-23T23:18:11.979Z,11.79
2019-05-23T23:21:15.881Z,11.74
2019-05-23T23:24:19.786Z,11.62
2019-05-23T23:27:23.679Z,11.62
2019-05-23T23:30:30.706Z,11.41
2019-05-23T23:33:34.673Z,11.36
2019-05-23T23:36:38.498Z,11.30
2019-05-23T23:39:42.504Z,11.28
2019-05-23T23:42:46.320Z,11.23
2019-05-23T23:46:07.998Z,11.14
2019-05-23T23:49:29.669Z,11.07
2019-05-23T23:52:51.322Z,11.02
2019-05-23T23:56:13.002Z,10.97
2019-05-23T23:59:15.955Z,10.90
